Data for 01/05/2018

Time Sea-Level Adjusted Pressure Absolute Pressure Temperature Relative Humidity Dew Point   
(mb) (inHg) (mb) (inHg) (C) (F) (%) (C) (F)
00:05 1021 30.15 851 25.13 -3.3 26.1 80 -6.3 20.6
00:10 1021 30.15 851 25.13 -3.3 26 80 -6.4 20.6
00:15 1021 30.15 851 25.13 -3.5 25.8 80 -6.4 20.5
00:20 1021 30.15 851 25.13 -3.7 25.4 81 -6.4 20.5
00:25 1021 30.15 851 25.13 -3.8 25.2 82 -6.5 20.4
00:30 1021 30.15 851 25.13 -3.9 25 83 -6.4 20.4
00:35 1021 30.15 851 25.13 -3.8 25.1 82 -6.4 20.4
00:40 1021 30.15 851 25.13 -3.6 25.5 82 -6.3 20.7
00:45 1021 30.15 851 25.13 -3.5 25.7 82 -6.2 20.9
00:50 1021 30.15 851 25.13 -3.5 25.7 82 -6.1 21
00:55 1021 30.15 850 25.1 -3.4 25.9 82 -6.1 21.1
01:00 1021 30.15 851 25.13 -3.2 26.3 81 -5.9 21.3
01:05 1021 30.15 851 25.13 -3 26.5 80 -6 21.2
01:10 1021 30.15 851 25.13 -2.8 26.9 80 -5.8 21.6
01:15 1021 30.15 851 25.13 -2.7 27.1 79 -5.8 21.5
01:20 1022 30.18 851 25.13 -2.5 27.4 78 -5.8 21.6
01:25 1022 30.18 851 25.13 -2.3 27.8 78 -5.7 21.7
01:30 1022 30.18 851 25.13 -2.2 28 77 -5.7 21.8
01:35 1022 30.18 851 25.13 -2.4 27.7 78 -5.8 21.6
01:40 1022 30.18 851 25.13 -2.5 27.5 78 -5.8 21.5
01:45 1022 30.18 851 25.13 -2.5 27.4 78 -5.8 21.5
01:50 1022 30.18 851 25.13 -2.7 27.2 79 -5.9 21.4
01:55 1022 30.18 851 25.13 -2.8 26.9 80 -5.8 21.6
02:00 1022 30.18 851 25.13 -2.8 26.9 80 -5.9 21.4
02:05 1022 30.18 851 25.13 -2.7 27.2 80 -5.7 21.8
02:10 1022 30.18 851 25.13 -2.2 28.1 78 -5.5 22
02:15 1022 30.18 851 25.13 -2.1 28.1 79 -5.2 22.6
02:20 1022 30.18 851 25.13 -1.9 28.6 79 -5.1 22.8
02:25 1022 30.18 851 25.13 -1.6 29.2 77 -5.1 22.9
02:30 1022 30.18 851 25.13 -1.5 29.4 77 -5 22.9
02:35 1021 30.15 851 25.13 -1.4 29.4 76 -5.1 22.9
02:40 1021 30.15 851 25.13 -1.5 29.3 76 -5.1 22.7
02:45 1021 30.15 851 25.13 -1.8 28.8 79 -4.9 23.2
02:50 1021 30.15 851 25.13 -1.4 29.5 77 -4.9 23.1
02:55 1021 30.15 851 25.13 -1.2 29.9 76 -4.9 23.2
03:00 1021 30.15 851 25.13 -1 30.2 75 -4.9 23.3
03:05 1021 30.15 851 25.13 -1 30.2 77 -4.6 23.8
03:10 1021 30.15 851 25.13 -1.3 29.7 79 -4.5 23.9
03:15 1021 30.15 851 25.13 -1.2 29.8 78 -4.6 23.7
03:20 1021 30.15 851 25.13 -1.1 30.1 76 -4.7 23.5
03:25 1021 30.15 851 25.13 -1 30.3 75 -4.8 23.3
03:30 1021 30.15 851 25.13 -0.8 30.5 75 -4.7 23.5
03:35 1022 30.18 851 25.13 -0.8 30.6 75 -4.7 23.6
03:40 1022 30.18 851 25.13 -0.8 30.6 75 -4.7 23.6
03:45 1021 30.15 851 25.13 -0.8 30.5 76 -4.6 23.7
03:50 1021 30.15 851 25.13 -1 30.2 76 -4.7 23.5
03:55 1021 30.15 851 25.13 -0.9 30.5 74 -4.9 23.2
04:00 1021 30.15 851 25.13 -0.9 30.4 76 -4.6 23.8
04:05 1021 30.15 851 25.13 -1.1 30 77 -4.6 23.7
04:10 1021 30.15 851 25.13 -1.4 29.5 79 -4.6 23.7
04:15 1021 30.15 851 25.13 -1.4 29.4 79 -4.6 23.7
04:20 1021 30.15 851 25.13 -1.5 29.3 79 -4.6 23.7
04:25 1022 30.18 851 25.13 -1.5 29.3 79 -4.7 23.6
04:30 1021 30.15 851 25.13 -1.3 29.7 78 -4.7 23.6
04:35 1021 30.15 851 25.13 -1.2 29.9 77 -4.6 23.6
04:40 1021 30.15 851 25.13 -1 30.3 76 -4.6 23.7
04:45 1021 30.15 850 25.1 -1 30.2 78 -4.4 24.2
04:50 1021 30.15 850 25.1 -1.3 29.6 80 -4.4 24
04:55 1021 30.15 850 25.1 -1.2 29.8 80 -4.2 24.4
05:00 1021 30.15 850 25.1 -0.9 30.4 79 -4.2 24.5
05:05 1021 30.15 850 25.1 -0.9 30.3 79 -4.1 24.6
05:10 1021 30.15 850 25.1 -1.1 30.1 79 -4.3 24.3
05:15 1021 30.15 850 25.1 -1.1 30 78 -4.4 24.1
05:20 1021 30.15 850 25.1 -0.8 30.5 77 -4.4 24.1
05:25 1021 30.15 850 25.1 -0.9 30.4 78 -4.2 24.4
05:30 1021 30.15 850 25.1 -1 30.1 78 -4.3 24.2
05:35 1021 30.15 850 25.1 -1 30.2 79 -4.2 24.4
05:40 1021 30.15 850 25.1 -1 30.3 78 -4.3 24.3
05:45 1021 30.15 850 25.1 -0.8 30.6 78 -4.2 24.4
05:50 1021 30.15 850 25.1 -0.6 30.9 76 -4.3 24.3
05:55 1021 30.15 850 25.1 -0.4 31.3 75 -4.3 24.3
06:00 1021 30.15 850 25.1 -0.2 31.6 75 -4.1 24.6
06:05 1021 30.15 850 25.1 -0 32 75 -4 24.8
06:10 1021 30.15 850 25.1 -0 31.9 74 -4.1 24.5
06:15 1021 30.15 850 25.1 0 32 74 -4.1 24.6
06:20 1021 30.15 850 25.1 -0 32 74 -4.1 24.6
06:25 1021 30.15 850 25.1 0 32 73 -4.2 24.5
06:30 1021 30.15 850 25.1 -0 32 74 -4.1 24.6
06:35 1021 30.15 850 25.1 -0 32 74 -4.1 24.7
06:40 1021 30.15 850 25.1 0 32 74 -4 24.8
06:45 1021 30.15 850 25.1 0 32.1 75 -3.9 25
06:50 1021 30.15 850 25.1 0 32.1 75 -3.9 25
06:55 1021 30.15 850 25.1 0 32 75 -3.8 25.1
07:00 1021 30.15 850 25.1 0.1 32.2 76 -3.7 25.4
07:05 1021 30.15 850 25.1 0.2 32.3 75 -3.8 25.2
07:10 1021 30.15 850 25.1 0.1 32.2 75 -3.8 25.2
07:15 1021 30.15 850 25.1 0.2 32.4 75 -3.8 25.2
07:20 1021 30.15 851 25.13 0.5 32.8 74 -3.7 25.3
07:25 1021 30.15 851 25.13 0.5 33 73 -3.8 25.1
07:30 1021 30.15 851 25.13 0.6 33 73 -3.8 25.2
07:35 1021 30.15 851 25.13 0.6 33 73 -3.8 25.2
07:40 1021 30.15 851 25.13 0.6 33 73 -3.8 25.2
07:45 1021 30.15 851 25.13 0.7 33.3 72 -3.7 25.3
07:50 1022 30.18 851 25.13 0.7 33.3 72 -3.7 25.4
07:55 1022 30.18 851 25.13 0.6 33.2 73 -3.7 25.3
08:00 1022 30.18 851 25.13 0.6 33.1 72 -3.8 25.1
08:05 1022 30.18 851 25.13 0.8 33.5 72 -3.7 25.3
08:10 1022 30.18 851 25.13 0.8 33.4 73 -3.4 25.8
08:15 1022 30.18 851 25.13 0.6 33.1 74 -3.5 25.7
08:20 1022 30.18 851 25.13 0.5 33 75 -3.4 25.9
08:25 1022 30.18 851 25.13 0.5 33 75 -3.5 25.8
08:30 1022 30.18 851 25.13 0.3 32.6 76 -3.5 25.8
08:35 1022 30.18 851 25.13 0.2 32.4 76 -3.6 25.5
08:40 1022 30.18 851 25.13 0.3 32.5 76 -3.6 25.6
08:45 1022 30.18 851 25.13 0.3 32.5 75 -3.6 25.6
08:50 1022 30.18 851 25.13 0.4 32.7 75 -3.5 25.6
08:55 1022 30.18 851 25.13 0.4 32.8 75 -3.5 25.7
09:00 1022 30.18 851 25.13 0.5 32.9 75 -3.5 25.7
09:05 1022 30.18 851 25.13 0.3 32.5 76 -3.4 25.8
09:10 1022 30.18 851 25.13 0.3 32.5 76 -3.5 25.8
09:15 1022 30.18 851 25.13 0.3 32.6 76 -3.3 26
09:20 1022 30.18 851 25.13 0.5 32.9 76 -3.2 26.2
09:25 1022 30.18 851 25.13 0.5 32.9 76 -3.2 26.2
09:30 1022 30.18 852 25.16 0.5 32.9 76 -3.2 26.2
09:35 1022 30.18 852 25.16 0.9 33.5 74 -3.2 26.3
09:40 1022 30.18 852 25.16 1.2 34.1 73 -3.1 26.4
09:45 1022 30.18 852 25.16 1.2 34.1 73 -3.1 26.4
09:50 1022 30.18 852 25.16 1.2 34.2 73 -3.1 26.5
09:55 1022 30.18 852 25.16 1.4 34.6 72 -3 26.5
10:00 1022 30.18 852 25.16 1.6 34.8 71 -3.1 26.4
10:05 1022 30.18 852 25.16 1.7 35.1 71 -2.9 26.7
10:10 1022 30.18 852 25.16 2.1 35.7 70 -2.9 26.8
10:15 1022 30.18 852 25.16 2.3 36.1 69 -2.9 26.8
10:20 1022 30.18 851 25.13 2.4 36.3 68 -2.9 26.7
10:25 1022 30.18 851 25.13 2.5 36.4 67 -3 26.7
10:30 1022 30.18 851 25.13 2.8 37.1 65 -3.1 26.5
10:35 1022 30.18 851 25.13 3 37.4 65 -3 26.7
10:40 1022 30.18 851 25.13 3.5 38.2 62 -3.2 26.2
10:45 1022 30.18 851 25.13 4.1 39.4 59 -3.1 26.4
10:50 1022 30.18 851 25.13 4.4 40 56 -3.5 25.7
10:55 1022 30.18 852 25.16 4.6 40.3 57 -3.1 26.4
11:00 1022 30.18 852 25.16 5 41 58 -2.7 27.2
11:05 1022 30.18 852 25.16 4.8 40.6 56 -3.4 26
11:10 1022 30.18 852 25.16 4 39.1 54 -4.6 23.7
11:15 1022 30.18 852 25.16 4 39.2 51 -5.1 22.8
11:20 1022 30.18 852 25.16 4.3 39.8 48 -5.7 21.8
11:25 1022 30.18 852 25.16 4.3 39.7 52 -4.8 23.3
11:30 1022 30.18 851 25.13 4.4 39.8 52 -4.7 23.6
11:35 1022 30.18 851 25.13 4.4 39.9 52 -4.6 23.6
11:40 1022 30.18 851 25.13 4.1 39.5 50 -5.3 22.4
11:45 1022 30.18 851 25.13 3.9 39 52 -5.1 22.8
11:50 1022 30.18 851 25.13 3.8 38.8 51 -5.5 22.1
11:55 1022 30.18 851 25.13 3.9 39 52 -5 23
12:00 1022 30.18 851 25.13 3.9 39 52 -5.2 22.6
12:05 1022 30.18 851 25.13 3.4 38.2 53 -5.4 22.3
12:10 1022 30.18 851 25.13 3.5 38.3 52 -5.3 22.4
12:15 1022 30.18 851 25.13 3.4 38.2 52 -5.4 22.2
12:20 1022 30.18 851 25.13 3.5 38.3 56 -4.6 23.8
12:25 1022 30.18 851 25.13 3.6 38.5 54 -4.7 23.5
12:30 1022 30.18 851 25.13 3.7 38.6 59 -3.6 25.6
12:35 1022 30.18 851 25.13 3.4 38.1 63 -3 26.5
12:40 1022 30.18 851 25.13 3.1 37.7 61 -3.6 25.5
12:45 1022 30.18 851 25.13 3.2 37.8 62 -3.4 26
12:50 1022 30.18 851 25.13 3.2 37.7 61 -3.6 25.6
12:55 1022 30.18 851 25.13 3.1 37.7 59 -4 24.8
13:00 1021 30.15 851 25.13 3.1 37.6 61 -3.6 25.4
13:05 1021 30.15 851 25.13 3.1 37.6 61 -3.6 25.6
13:10 1021 30.15 851 25.13 3.2 37.7 62 -3.4 25.8
13:15 1021 30.15 851 25.13 3.3 38 62 -3.3 26
13:20 1021 30.15 851 25.13 3.5 38.2 61 -3.4 25.8
13:25 1021 30.15 850 25.1 3.4 38.1 60 -3.7 25.4
13:30 1021 30.15 851 25.13 3.5 38.4 59 -3.7 25.3
13:35 1021 30.15 851 25.13 3.7 38.6 60 -3.5 25.8
13:40 1021 30.15 851 25.13 3.8 38.9 60 -3.2 26.3
13:45 1021 30.15 851 25.13 4 39.1 57 -3.8 25.2
13:50 1021 30.15 851 25.13 3.6 38.5 59 -3.5 25.6
13:55 1021 30.15 851 25.13 3.5 38.4 60 -3.6 25.5
14:00 1021 30.15 851 25.13 3.6 38.5 59 -3.6 25.5
14:05 1021 30.15 851 25.13 3.7 38.7 58 -3.7 25.4
14:10 1021 30.15 851 25.13 4 39.2 57 -3.8 25.2
14:15 1021 30.15 851 25.13 4.1 39.3 58 -3.5 25.7
14:20 1021 30.15 851 25.13 4.1 39.4 57 -3.7 25.4
14:25 1021 30.15 851 25.13 4.2 39.5 56 -3.8 25.2
14:30 1021 30.15 851 25.13 4.2 39.5 57 -3.6 25.4
14:35 1021 30.15 851 25.13 4.4 39.9 55 -3.8 25.1
14:40 1021 30.15 851 25.13 4.4 40 54 -4.1 24.6
14:45 1021 30.15 851 25.13 4.5 40.2 55 -3.7 25.3
14:50 1021 30.15 850 25.1 4.5 40.2 58 -3.1 26.5
14:55 1021 30.15 850 25.1 4.2 39.5 59 -3 26.6
15:00 1021 30.15 850 25.1 3.9 39.1 60 -3.2 26.3
15:05 1021 30.15 850 25.1 3.9 39.1 60 -3.1 26.4
15:10 1021 30.15 850 25.1 4.1 39.4 60 -2.9 26.8
15:15 1021 30.15 850 25.1 3.8 38.9 61 -3.1 26.4
15:20 1021 30.15 850 25.1 3.8 38.8 61 -3.1 26.4
15:25 1021 30.15 850 25.1 3.8 38.9 63 -2.7 27.2
15:30 1021 30.15 851 25.13 3.7 38.6 62 -3 26.7
15:35 1021 30.15 851 25.13 3.6 38.5 60 -3.3 26
15:40 1021 30.15 851 25.13 3.8 38.9 60 -3.3 26.1
15:45 1021 30.15 851 25.13 4.1 39.4 58 -3.5 25.7
15:50 1021 30.15 851 25.13 4.3 39.8 56 -3.7 25.4
15:55 1021 30.15 851 25.13 4.6 40.3 57 -3.2 26.2
16:00 1021 30.15 851 25.13 4.8 40.7 57 -3.1 26.5
16:05 1021 30.15 851 25.13 4.8 40.7 57 -2.9 26.7
16:10 1021 30.15 851 25.13 4.6 40.3 57 -3.2 26.3
16:15 1021 30.15 851 25.13 4.3 39.7 60 -2.7 27.1
16:20 1021 30.15 851 25.13 3.6 38.6 63 -2.8 26.9
16:25 1021 30.15 851 25.13 3.7 38.7 61 -3.1 26.5
16:30 1021 30.15 851 25.13 3.9 39 60 -3.1 26.4
16:35 1021 30.15 851 25.13 4.1 39.3 62 -2.6 27.3
16:40 1021 30.15 851 25.13 4.1 39.3 63 -2.4 27.7
16:45 1021 30.15 850 25.1 3.9 39.1 63 -2.5 27.5
16:50 1021 30.15 850 25.1 4.1 39.4 60 -3 26.6
16:55 1021 30.15 850 25.1 4.5 40 59 -2.8 26.9
17:00 1021 30.15 850 25.1 4.6 40.3 58 -3 26.6
17:05 1021 30.15 850 25.1 4.7 40.4 58 -2.8 27
17:10 1021 30.15 850 25.1 4.4 39.8 59 -3 26.7
17:15 1021 30.15 850 25.1 4.3 39.7 59 -2.9 26.7
17:20 1021 30.15 850 25.1 4.3 39.8 61 -2.5 27.5
17:25 1021 30.15 850 25.1 4 39.2 63 -2.5 27.5
17:30 1021 30.15 850 25.1 3.8 38.8 65 -2.1 28.2
17:35 1021 30.15 850 25.1 3.2 37.8 70 -1.8 28.7
17:40 1021 30.15 850 25.1 2.8 37 72 -1.8 28.8
17:45 1021 30.15 850 25.1 2.5 36.6 73 -1.9 28.6
17:50 1021 30.15 850 25.1 2.6 36.6 73 -1.9 28.6
17:55 1021 30.15 850 25.1 2.6 36.7 73 -1.8 28.7
18:00 1021 30.15 850 25.1 2.5 36.6 73 -1.9 28.6
18:05 1021 30.15 850 25.1 2.9 37.2 71 -1.9 28.6
18:10 1021 30.15 850 25.1 3.3 37.9 70 -1.6 29
18:15 1021 30.15 850 25.1 3.3 37.9 71 -1.4 29.5
18:20 1021 30.15 850 25.1 3.2 37.8 72 -1.4 29.5
18:25 1021 30.15 850 25.1 3.1 37.7 74 -1 30.1
18:30 1021 30.15 850 25.1 2.7 36.9 76 -1.1 30
18:35 1021 30.15 850 25.1 2.8 37 74 -1.4 29.5
18:40 1021 30.15 850 25.1 2.7 36.9 72 -1.8 28.8
18:45 1021 30.15 850 25.1 2.7 36.9 72 -1.8 28.8
18:50 1021 30.15 850 25.1 2.9 37.2 72 -1.7 29
18:55 1021 30.15 850 25.1 2.8 37 73 -1.6 29.1
19:00 1021 30.15 850 25.1 2.7 36.9 73 -1.6 29.1
19:05 1021 30.15 850 25.1 2.7 36.9 73 -1.7 28.9
19:10 1021 30.15 850 25.1 2.9 37.3 70 -2 28.3
19:15 1021 30.15 850 25.1 3.2 37.7 69 -2 28.5
19:20 1021 30.15 850 25.1 3.4 38.1 67 -2.2 28.1
19:25 1021 30.15 850 25.1 3.9 39 65 -2.2 28.1
19:30 1021 30.15 850 25.1 4.1 39.5 64 -2.1 28.2
19:35 1021 30.15 850 25.1 4.6 40.3 61 -2.2 28.1
19:40 1021 30.15 850 25.1 4.9 40.8 61 -2.1 28.3
19:45 1020 30.12 850 25.1 4.8 40.7 62 -1.9 28.6
19:50 1020 30.12 850 25.1 4.5 40.1 61 -2.2 28
19:55 1020 30.12 850 25.1 4.7 40.4 60 -2.3 27.8
20:00 1020 30.12 850 25.1 4.8 40.6 61 -2.2 28
20:05 1020 30.12 849 25.07 4.7 40.5 62 -2 28.5
20:10 1020 30.12 849 25.07 4.3 39.7 63 -2.1 28.3
20:15 1020 30.12 849 25.07 4 39.3 63 -2.3 27.9
20:20 1020 30.12 849 25.07 4 39.3 65 -2 28.4
20:25 1020 30.12 849 25.07 3.9 39.1 64 -2.3 27.8
20:30 1020 30.12 849 25.07 4.1 39.3 65 -2 28.5
20:35 1020 30.12 849 25.07 3.8 38.9 64 -2.4 27.7
20:40 1020 30.12 849 25.07 4.1 39.4 63 -2.3 27.9
20:45 1020 30.12 849 25.07 4.1 39.4 62 -2.5 27.4
20:50 1020 30.12 849 25.07 4.2 39.6 63 -2.3 27.9
20:55 1020 30.12 849 25.07 4.2 39.5 63 -2.3 27.9
21:00 1020 30.12 849 25.07 4.1 39.4 60 -2.9 26.8
21:05 1020 30.12 849 25.07 4.4 40 58 -3.1 26.5
21:10 1020 30.12 849 25.07 4.7 40.4 58 -2.9 26.8
21:15 1020 30.12 849 25.07 4.7 40.4 58 -2.8 26.9
21:20 1020 30.12 849 25.07 4.7 40.5 58 -2.7 27.1
21:25 1020 30.12 849 25.07 4.7 40.4 60 -2.4 27.7
21:30 1020 30.12 849 25.07 4.4 39.9 63 -2.1 28.3
21:35 1020 30.12 849 25.07 3.7 38.7 66 -2.1 28.2
21:40 1020 30.12 849 25.07 3.2 37.7 69 -2 28.3
21:45 1020 30.12 849 25.07 2.9 37.2 71 -1.9 28.5
21:50 1020 30.12 849 25.07 2.7 36.8 69 -2.5 27.5
21:55 1020 30.12 849 25.07 3.3 38 63 -3 26.5
22:00 1020 30.12 849 25.07 3.9 39.1 61 -2.9 26.9
22:05 1020 30.12 849 25.07 4.2 39.6 58 -3.4 25.9
22:10 1020 30.12 849 25.07 4.5 40.1 57 -3.2 26.3
22:15 1020 30.12 849 25.07 4.5 40.1 57 -3.2 26.2
22:20 1020 30.12 849 25.07 4.4 39.9 59 -2.8 27
22:25 1020 30.12 849 25.07 4.2 39.5 61 -2.6 27.3
22:30 1020 30.12 849 25.07 3.5 38.4 65 -2.4 27.7
22:35 1020 30.12 849 25.07 3.4 38.1 65 -2.6 27.3
22:40 1020 30.12 849 25.07 3.5 38.3 66 -2.2 28
22:45 1020 30.12 849 25.07 3.3 37.9 68 -2 28.4
22:50 1019 30.09 849 25.07 3 37.5 70 -2 28.4
22:55 1019 30.09 849 25.07 3.2 37.8 68 -2.1 28.1
23:00 1019 30.09 849 25.07 3.4 38.1 68 -2 28.4
23:05 1019 30.09 849 25.07 3.5 38.3 63 -3 26.7
23:10 1019 30.09 849 25.07 4.2 39.5 62 -2.4 27.7
23:15 1019 30.09 849 25.07 4.1 39.4 62 -2.5 27.6
23:20 1019 30.09 849 25.07 4 39.2 63 -2.3 27.8
23:25 1019 30.09 849 25.07 3.9 39.1 62 -2.6 27.3
23:30 1019 30.09 849 25.07 3.9 39 64 -2.3 27.8
23:35 1019 30.09 848 25.04 3.6 38.5 66 -2.2 28
23:40 1019 30.09 848 25.04 3.5 38.2 65 -2.5 27.6
23:45 1019 30.09 848 25.04 3.4 38.1 66 -2.3 27.8
23:50 1019 30.09 848 25.04 3.1 37.6 66 -2.6 27.3
23:55 1019 30.09 848 25.04 3.2 37.7 66 -2.5 27.5
24:00 1019 30.09 848 25.04 3.1 37.6 66 -2.6 27.3